Time;durP1;ratioP1;P1;durP2;ratioP2;P2;SDS_P1;SDS_P2;PMS_P1;PMS_P2;Temp;Humidity;BMP_temperature;BMP_pressure;BME280_temperature;BME280_humidity;BME280_pressure;Samples;Min_cycle;Max_cycle;Signal;HPM_P1;HPM_P2
2022/11/02 00:01:57;;;;;;;0.50;0.50;;;23.80;66.50;;;24.06;48.33;95434.34;5079387;28;20194;-78
2022/11/02 00:04:24;;;;;;;0.40;0.40;;;23.80;66.40;;;24.04;48.27;95428.44;5079079;28;20633;-78
2022/11/02 00:06:52;;;;;;;0.35;0.35;;;23.80;66.50;;;24.07;48.35;95430.59;5079347;28;20315;-78
2022/11/02 00:09:19;;;;;;;0.40;0.40;;;23.80;66.50;;;24.04;48.30;95422.28;5079194;28;20201;-78
2022/11/02 00:11:46;;;;;;;0.30;0.30;;;23.80;66.50;;;24.07;48.20;95430.59;5078984;28;20650;-78
2022/11/02 00:14:13;;;;;;;0.30;0.30;;;23.80;66.50;;;24.03;48.18;95426.03;5096427;28;20181;-78
2022/11/02 00:16:41;;;;;;;0.30;0.30;;;23.80;66.50;;;24.03;48.10;95423.34;5079033;28;20206;-78
2022/11/02 00:19:08;;;;;;;0.30;0.30;;;23.80;66.50;;;24.07;48.12;95435.94;5078926;28;20190;-78
2022/11/02 00:21:36;;;;;;;0.40;0.40;;;23.80;66.50;;;24.05;48.29;95432.72;5062181;28;20339;-78
2022/11/02 00:24:05;;;;;;;0.40;0.40;;;23.80;66.50;;;24.06;48.10;95434.34;5062265;28;20190;-78
2022/11/02 00:26:35;;;;;;;0.30;0.30;;;23.80;66.40;;;24.07;48.08;95427.91;5095484;28;20186;-78
2022/11/02 00:29:04;;;;;;;0.40;0.40;;;23.80;66.40;;;24.05;48.05;95431.94;5078590;28;20202;-77
2022/11/02 00:31:31;;;;;;;0.30;0.30;;;23.80;66.50;;;24.06;48.10;95438.88;5061986;28;20209;-77
2022/11/02 00:33:58;;;;;;;0.47;0.47;;;23.80;66.50;;;24.04;48.12;95438.34;5078570;28;20210;-78
2022/11/02 00:36:28;;;;;;;0.40;0.40;;;23.80;66.50;;;24.05;48.12;95439.97;5062810;28;20200;-78
2022/11/02 00:38:55;;;;;;;0.38;0.38;;;23.80;66.40;;;24.07;48.15;95437.81;5062289;28;20186;-78
2022/11/02 00:41:22;;;;;;;0.40;0.40;;;23.80;66.40;;;24.07;48.27;95444.00;5095354;28;20289;-77
2022/11/02 00:43:50;;;;;;;0.30;0.30;;;23.80;66.50;;;24.05;47.95;95439.97;5061798;28;20194;-77
2022/11/02 00:46:17;;;;;;;0.43;0.43;;;23.80;66.50;;;24.05;47.75;95440.75;5078529;28;20225;-78
2022/11/02 00:48:44;;;;;;;0.32;0.32;;;23.80;66.50;;;24.05;48.05;95435.41;5078553;28;20574;-78
2022/11/02 00:51:11;;;;;;;0.30;0.30;;;23.80;66.50;;;24.01;47.83;95436.19;5061865;28;20283;-78
2022/11/02 00:53:42;;;;;;;0.30;0.30;;;23.80;66.50;;;24.05;48.39;95442.66;5078855;28;20222;-78
2022/11/02 00:56:10;;;;;;;0.35;0.35;;;23.80;66.50;;;24.05;48.11;95437.28;5078251;28;20354;-78
2022/11/02 00:58:37;;;;;;;0.43;0.43;;;23.80;66.50;;;24.04;47.91;95438.34;5078263;28;20201;-78
2022/11/02 01:01:06;;;;;;;0.40;0.40;;;23.80;67.40;;;24.05;48.04;95431.94;5045361;28;20554;-78
2022/11/02 01:03:35;;;;;;;0.50;0.50;;;23.80;66.40;;;24.00;48.01;95429.22;5077775;28;20206;-78
2022/11/02 01:06:14;;;;;;;0.30;0.30;;;23.80;66.40;;;24.04;48.09;95441.03;5077945;28;20206;-78
2022/11/02 01:08:41;;;;;;;0.40;0.40;;;23.80;66.50;;;24.03;48.02;95439.41;5095232;28;20182;-78
2022/11/02 01:11:29;;;;;;;0.40;0.40;;;23.80;66.40;;;24.01;47.92;95439.69;5077977;28;20201;-78
2022/11/02 01:13:56;;;;;;;0.40;0.40;;;23.80;66.40;;;23.98;48.60;95443.66;5077075;28;20610;-78
2022/11/02 01:16:23;;;;;;;0.30;0.30;;;23.80;66.50;;;24.00;48.05;95445.28;5078313;28;20193;-78
2022/11/02 01:18:52;;;;;;;0.30;0.30;;;23.80;66.40;;;24.03;48.10;95439.41;5078061;28;20269;-78
2022/11/02 01:21:21;;;;;;;0.40;0.40;;;23.80;66.40;;;24.03;48.01;95448.25;5077974;28;20572;-78
2022/11/02 01:23:48;;;;;;;0.30;0.30;;;23.80;66.40;;;24.02;47.71;95441.28;5077837;28;20205;-78
2022/11/02 01:26:15;;;;;;;0.40;0.40;;;23.80;66.50;;;24.02;48.00;95432.44;5077770;28;20573;-78
2022/11/02 01:28:43;;;;;;;0.30;0.30;;;23.80;66.40;;;23.95;47.92;95419.31;5061207;28;20198;-78
2022/11/02 01:31:12;;;;;;;0.40;0.40;;;23.80;66.50;;;24.01;48.15;95428.97;5044800;28;20213;-78
2022/11/02 01:33:44;;;;;;;0.40;0.40;;;23.80;66.50;;;24.02;48.10;95441.28;5077387;28;20218;-78
2022/11/02 01:36:14;;;;;;;0.40;0.40;;;23.80;66.40;;;24.00;48.11;95432.72;5044675;28;20256;-78
2022/11/02 01:38:42;;;;;;;0.30;0.30;;;23.80;66.40;;;23.95;47.96;95424.66;5061171;28;20207;-78
2022/11/02 01:41:11;;;;;;;0.30;0.30;;;23.80;66.40;;;23.93;47.79;95421.44;5077738;28;20193;-78
2022/11/02 01:43:55;;;;;;;0.38;0.38;;;23.80;66.50;;;23.99;48.03;95436.47;5077701;28;20200;-78
2022/11/02 01:46:34;;;;;;;0.30;0.30;;;23.70;66.40;;;23.99;48.23;95439.13;5077554;28;20267;-78
2022/11/02 01:49:11;;;;;;;0.40;0.40;;;23.80;66.40;;;23.97;48.25;95434.06;5094402;28;20185;-78
2022/11/02 01:52:03;;;;;;;0.40;0.40;;;23.80;66.50;;;23.90;47.94;95419.25;5094332;28;20204;-78
2022/11/02 01:54:40;;;;;;;0.30;0.30;;;23.80;66.30;;;23.93;47.90;95424.91;5077803;28;20531;-78
2022/11/02 01:57:12;;;;;;;0.40;0.40;;;23.80;66.30;;;23.97;47.99;95422.50;5044530;28;20519;-78
2022/11/02 01:59:57;;;;;;;0.32;0.32;;;23.80;66.40;;;23.95;47.99;95420.09;5060849;28;20228;-78
2022/11/02 02:02:26;;;;;;;0.40;0.40;;;23.80;66.40;;;23.95;47.99;95420.09;5077817;28;20201;-78
2022/11/02 02:05:04;;;;;;;0.32;0.32;;;23.70;66.40;;;23.96;48.15;95427.06;5060768;28;20205;-78
2022/11/02 02:07:35;;;;;;;0.50;0.50;;;23.70;66.30;;;23.92;48.32;95427.84;5060743;28;20308;-78
2022/11/02 02:10:04;;;;;;;0.30;0.30;;;23.70;66.30;;;23.92;47.99;95433.19;5077706;28;20183;-78
2022/11/02 02:12:35;;;;;;;0.40;0.40;;;23.70;66.40;;;23.91;47.90;95435.06;5060713;28;20209;-78
2022/11/02 02:15:03;;;;;;;0.38;0.38;;;23.70;66.30;;;23.96;48.05;95447.69;5081306;28;20281;-78
2022/11/02 02:17:51;;;;;;;0.40;0.40;;;23.70;66.20;;;23.94;48.00;95437.25;5098235;28;20196;-78
2022/11/02 02:20:45;;;;;;;0.60;0.60;;;23.70;66.30;;;23.92;47.92;95442.06;5080843;28;20286;-78
2022/11/02 02:23:42;;;;;;;0.40;0.40;;;23.70;66.10;;;23.88;48.13;95445.50;5064268;28;20222;-78
2022/11/02 02:26:46;;;;;;;0.40;0.40;;;23.70;66.10;;;23.90;47.94;95446.03;5064495;28;20265;-78
2022/11/02 02:29:52;;;;;;;0.40;0.40;;;23.70;66.10;;;23.86;48.06;95448.44;5064576;28;20533;-78
2022/11/02 02:33:00;;;;;;;0.40;0.40;;;23.70;66.00;;;23.86;48.06;95448.44;5074053;28;20217;-78
2022/11/02 02:35:58;;;;;;;0.40;0.40;;;23.70;66.00;;;23.85;47.89;95449.50;5060892;28;20205;-78
2022/11/02 02:38:45;;;;;;;0.40;0.40;;;23.70;66.10;;;23.85;48.04;95446.03;5061070;28;20191;-78
2022/11/02 02:41:25;;;;;;;0.40;0.40;;;23.70;66.00;;;23.86;48.07;95451.13;5044237;28;20612;-78
2022/11/02 02:43:56;;;;;;;0.40;0.40;;;23.70;66.20;;;23.80;48.24;95442.28;5063525;28;20201;-78
2022/11/02 02:46:50;;;;;;;0.40;0.40;;;23.70;66.20;;;23.82;47.91;95448.16;5047639;28;20634;-78
2022/11/02 02:49:34;;;;;;;0.40;0.40;;;23.70;66.20;;;23.85;48.09;95446.03;5092652;28;20582;-78
2022/11/02 02:52:03;;;;;;;0.50;0.50;;;23.70;66.20;;;23.83;48.29;95443.63;5040538;28;20198;-77
2022/11/02 02:54:38;;;;;;;0.30;0.30;;;23.70;66.20;;;23.86;47.94;95451.13;5080371;28;20197;-78
2022/11/02 02:57:19;;;;;;;0.30;0.30;;;23.70;66.30;;;23.85;48.05;95448.69;5073279;28;20201;-78
2022/11/02 02:59:48;;;;;;;0.30;0.30;;;23.60;66.10;;;23.86;47.79;95445.75;5064188;28;20548;-78
2022/11/02 03:02:21;;;;;;;0.40;0.40;;;23.70;66.30;;;23.87;47.96;95449.25;5080285;28;20273;-78
2022/11/02 03:04:48;;;;;;;0.30;0.30;;;23.70;66.10;;;23.82;47.26;95440.13;5063641;28;20224;-78
2022/11/02 03:07:24;;;;;;;0.40;0.40;;;23.70;66.10;;;23.86;47.87;95442.28;5063640;28;20636;-78
2022/11/02 03:10:27;;;;;;;0.30;0.30;;;23.60;66.00;;;23.84;47.70;95445.22;5049288;28;20646;-78
2022/11/02 03:13:39;;;;;;;0.40;0.40;;;23.70;66.00;;;23.80;48.35;95444.94;5080406;28;20293;-78
2022/11/02 03:16:30;;;;;;;0.40;0.40;;;23.60;66.10;;;23.77;47.86;95448.13;5079951;28;20233;-78
2022/11/02 03:19:19;;;;;;;0.63;0.63;;;23.60;65.90;;;23.83;47.91;95454.34;5079921;28;20193;-78
2022/11/02 03:21:57;;;;;;;0.40;0.40;;;23.70;66.10;;;23.82;47.84;95452.72;5063143;28;20343;-78
2022/11/02 03:24:59;;;;;;;0.40;0.40;;;23.60;66.00;;;23.81;48.09;95454.59;5079406;28;20248;-78
2022/11/02 03:27:55;;;;;;;0.50;0.50;;;23.60;66.00;;;23.79;47.88;95456.72;5092656;28;20595;-78
2022/11/02 03:30:29;;;;;;;0.50;0.50;;;23.60;66.00;;;23.78;48.27;95457.78;5063276;28;20198;-78
2022/11/02 03:33:28;;;;;;;0.40;0.40;;;23.60;66.00;;;23.80;47.77;95458.34;5079601;28;20556;-78
2022/11/02 03:36:06;;;;;;;0.35;0.35;;;23.60;66.00;;;23.79;48.04;95455.91;5096580;28;20170;-78
2022/11/02 03:38:41;;;;;;;0.40;0.40;;;23.60;66.00;;;23.78;48.07;95455.13;5079567;28;20193;-78
2022/11/02 03:41:10;;;;;;;0.40;0.40;;;23.60;66.10;;;23.77;48.03;95448.13;5062917;28;20200;-78
2022/11/02 03:43:39;;;;;;;0.40;0.40;;;23.60;66.10;;;23.82;48.01;95452.72;5079920;28;20213;-78
2022/11/02 03:46:10;;;;;;;0.30;0.30;;;23.60;66.00;;;23.81;48.04;95459.13;5079686;28;20208;-77
2022/11/02 03:48:47;;;;;;;0.40;0.40;;;23.60;66.90;;;23.77;47.94;95447.34;5079531;28;20581;-78
2022/11/02 03:51:22;;;;;;;0.40;0.40;;;23.60;66.00;;;23.79;47.92;95464.75;5079399;28;20248;-78
2022/11/02 03:54:14;;;;;;;0.40;0.40;;;23.60;66.00;;;23.79;47.83;95462.09;5095923;28;20206;-78
2022/11/02 03:56:47;;;;;;;0.30;0.30;;;23.60;65.90;;;23.72;47.80;95456.16;5079255;28;20197;-78
2022/11/02 03:59:16;;;;;;;0.40;0.40;;;23.60;66.00;;;23.77;47.86;95455.38;5079432;28;20202;-77
2022/11/02 04:01:50;;;;;;;0.40;0.40;;;23.60;66.10;;;23.82;47.86;95463.44;5062892;28;20190;-78
2022/11/02 04:04:20;;;;;;;0.40;0.40;;;23.60;66.00;;;23.77;47.68;95458.84;5063003;28;20305;-78
2022/11/02 04:06:48;;;;;;;0.40;0.40;;;23.60;66.10;;;23.79;47.74;95461.25;5079120;28;20194;-78
2022/11/02 04:09:17;;;;;;;0.50;0.50;;;23.60;66.00;;;23.77;48.05;95450.81;5062668;28;20704;-78
2022/11/02 04:14:38;;;;;;;0.47;0.47;;;23.60;66.00;;;23.74;47.77;95445.19;5078864;28;20214;-78
2022/11/02 04:20:10;;;;;;;0.30;0.30;;;23.60;66.00;;;23.79;48.01;95459.41;5083013;28;20596;-77
2022/11/02 04:25:25;;;;;;;0.38;0.38;;;23.60;66.90;;;23.75;47.96;95454.81;5081715;28;20199;-78
2022/11/02 04:27:55;;;;;;;0.30;0.30;;;23.60;65.90;;;23.78;47.69;95460.47;5079336;28;20201;-77
2022/11/02 04:30:28;;;;;;;0.40;0.40;;;23.60;66.40;;;23.75;47.82;95458.31;5078468;28;20198;-77
2022/11/02 04:35:49;;;;;;;0.40;0.40;;;23.60;65.90;;;23.74;47.68;95459.41;5052091;28;20574;-78
2022/11/02 04:43:55;;;;;;;0.40;0.40;;;23.60;65.80;;;23.73;48.06;95463.13;5064287;28;20198;-78
2022/11/02 04:46:26;;;;;;;0.40;0.40;;;23.60;65.90;;;23.77;47.74;95463.41;5078322;28;20190;-78
2022/11/02 04:48:55;;;;;;;0.40;0.40;;;23.50;65.80;;;23.74;47.89;95461.25;5062326;28;20205;-77
2022/11/02 04:51:25;;;;;;;0.40;0.40;;;23.50;66.70;;;23.71;47.65;95451.06;5078121;28;20280;-77
2022/11/02 04:53:54;;;;;;;0.40;0.40;;;23.60;65.90;;;23.77;47.60;95464.22;5078131;28;20226;-78
2022/11/02 04:56:24;;;;;;;0.40;0.40;;;23.50;65.80;;;23.77;47.61;95463.41;5061651;28;20232;-77
2022/11/02 04:58:55;;;;;;;0.32;0.32;;;23.50;65.80;;;23.78;47.65;95465.03;5078064;28;20542;-78
2022/11/02 05:01:27;;;;;;;0.40;0.40;;;23.50;65.80;;;23.76;47.87;95459.13;5078322;28;20173;-78
2022/11/02 05:03:55;;;;;;;0.38;0.38;;;23.50;65.80;;;23.73;47.74;95456.94;5044939;28;20205;-78
2022/11/02 05:06:25;;;;;;;0.40;0.40;;;23.50;65.80;;;23.77;47.80;95471.44;5061714;28;20206;-78
2022/11/02 05:08:54;;;;;;;0.30;0.30;;;23.50;65.80;;;23.76;48.03;95461.81;5045306;28;20263;-78
2022/11/02 05:11:23;;;;;;;0.40;0.40;;;23.50;65.80;;;23.75;47.80;95465.53;5077912;28;20263;-78
2022/11/02 05:13:51;;;;;;;0.30;0.30;;;23.50;65.80;;;23.73;47.76;95467.66;5077529;28;20217;-78
2022/11/02 05:16:19;;;;;;;0.40;0.40;;;23.50;65.80;;;23.76;47.63;95476.00;5077982;28;20608;-78
2022/11/02 05:18:49;;;;;;;0.40;0.40;;;23.50;65.80;;;23.72;47.76;95474.91;5077822;28;20186;-78
2022/11/02 05:21:19;;;;;;;0.40;0.40;;;23.60;65.90;;;23.73;47.41;95475.69;5061328;28;20225;-78
2022/11/02 05:23:48;;;;;;;0.40;0.40;;;23.50;65.80;;;23.74;47.74;95480.00;5094443;28;20194;-78
2022/11/02 05:26:15;;;;;;;0.30;0.30;;;23.50;65.70;;;23.76;47.96;95493.94;5077915;28;20190;-78
2022/11/02 05:28:46;;;;;;;0.38;0.38;;;23.50;65.70;;;23.77;47.61;95485.63;5078033;28;20202;-78
2022/11/02 05:31:13;;;;;;;0.30;0.30;;;23.50;65.70;;;23.77;47.79;95484.84;5077627;28;20208;-78
2022/11/02 05:33:42;;;;;;;0.30;0.30;;;23.50;65.70;;;23.74;47.54;95490.72;5077567;28;20213;-78
2022/11/02 05:36:15;;;;;;;0.40;0.40;;;23.50;65.70;;;23.77;47.80;95504.38;5077715;28;20244;-78
2022/11/02 05:38:45;;;;;;;0.30;0.30;;;23.50;65.70;;;23.76;47.65;95500.09;5077498;28;20197;-78
2022/11/02 05:41:13;;;;;;;0.40;0.40;;;23.50;65.60;;;23.74;47.64;95499.56;5077890;28;20195;-78
2022/11/02 05:43:42;;;;;;;0.40;0.40;;;23.50;66.50;;;23.75;47.28;95501.16;5077411;28;20301;-78
2022/11/02 05:46:13;;;;;;;0.30;0.30;;;23.50;65.70;;;23.77;47.00;95509.75;5077321;28;20206;-78
2022/11/02 05:48:41;;;;;;;0.40;0.40;;;23.50;65.70;;;23.75;47.54;95506.50;5077251;28;20202;-78
2022/11/02 05:51:09;;;;;;;0.32;0.32;;;23.50;65.60;;;23.77;47.58;95508.94;5060980;28;20507;-77
2022/11/02 05:53:37;;;;;;;0.30;0.30;;;23.50;65.70;;;23.77;47.46;95514.31;5077588;28;20206;-77
2022/11/02 05:56:07;;;;;;;0.40;0.40;;;23.50;65.70;;;23.76;47.59;95507.34;5077256;28;20212;-78
2022/11/02 05:58:34;;;;;;;0.30;0.30;;;23.50;65.60;;;23.75;47.71;95511.06;5077442;28;20519;-77
2022/11/02 06:01:04;;;;;;;0.50;0.50;;;23.50;65.70;;;23.75;47.40;95511.88;5077535;28;20193;-78
2022/11/02 06:03:31;;;;;;;0.32;0.32;;;23.50;65.70;;;23.75;47.18;95513.75;5057227;28;20562;-77
2022/11/02 06:06:02;;;;;;;0.35;0.35;;;23.50;65.60;;;23.70;47.58;95509.16;5077073;28;20690;-78
2022/11/02 06:08:33;;;;;;;0.30;0.30;;;23.50;65.60;;;23.75;47.46;95521.78;5060956;28;20237;-78
2022/11/02 06:11:12;;;;;;;0.40;0.40;;;23.50;65.60;;;23.74;47.51;95518.31;5057265;28;20191;-78
2022/11/02 06:13:41;;;;;;;0.60;0.60;;;23.50;65.60;;;23.76;47.63;95526.88;5056068;28;20211;-78
2022/11/02 06:16:10;;;;;;;0.40;0.40;;;23.50;65.60;;;23.75;47.56;95529.81;5060751;28;20221;-78
2022/11/02 06:18:38;;;;;;;0.30;0.30;;;23.50;65.60;;;23.71;47.60;95520.72;5094052;28;20225;-78
2022/11/02 06:21:06;;;;;;;0.30;0.30;;;23.50;65.60;;;23.66;47.31;95524.97;5077323;28;20676;-78
2022/11/02 06:23:34;;;;;;;0.30;0.30;;;23.50;65.60;;;23.70;47.93;95535.16;5060688;28;20200;-78
2022/11/02 06:26:02;;;;;;;0.40;0.40;;;23.50;65.70;;;23.74;47.59;95541.59;5077115;28;20194;-78
2022/11/02 06:28:30;;;;;;;0.40;0.40;;;23.50;65.70;;;23.76;47.34;95544.84;5077588;28;20198;-78
2022/11/02 06:30:58;;;;;;;0.30;0.30;;;23.50;65.70;;;23.75;47.60;95537.88;5077120;28;20645;-78
2022/11/02 06:33:25;;;;;;;0.32;0.32;;;23.50;65.70;;;23.75;47.67;95544.00;5060295;28;20222;-78
2022/11/02 06:35:54;;;;;;;0.50;0.50;;;23.50;65.70;;;23.75;47.89;95545.91;5059772;28;20747;-78
2022/11/02 06:38:22;;;;;;;0.40;0.40;;;23.50;65.70;;;23.75;47.65;95552.03;5076953;28;20579;-78
2022/11/02 06:41:04;;;;;;;0.40;0.40;;;23.50;65.70;;;23.75;47.71;95551.25;5060386;28;20556;-78
2022/11/02 06:43:36;;;;;;;0.40;0.40;;;23.50;65.70;;;23.75;47.76;95551.25;5044459;28;20211;-78
2022/11/02 06:46:04;;;;;;;0.30;0.30;;;23.50;65.70;;;23.76;47.77;95544.84;5076705;28;20204;-78
2022/11/02 06:48:33;;;;;;;0.32;0.32;;;23.50;66.50;;;23.66;47.68;95541.03;5060302;28;20606;-78
2022/11/02 06:51:03;;;;;;;0.47;0.47;;;23.50;65.70;;;23.71;47.74;95552.84;5069051;28;20260;-78
2022/11/02 06:53:31;;;;;;;0.45;0.45;;;23.50;65.60;;;23.73;47.87;95545.34;5077209;28;20214;-78
2022/11/02 06:55:59;;;;;;;0.40;0.40;;;23.50;65.70;;;23.73;47.59;95551.53;5086253;28;20194;-78
2022/11/02 06:58:26;;;;;;;0.40;0.40;;;23.50;65.70;;;23.78;47.73;95542.72;5060148;28;20190;-78
2022/11/02 07:01:05;;;;;;;0.40;0.40;;;23.50;65.70;;;23.78;47.54;95559.56;5062106;28;20644;-78
2022/11/02 07:03:33;;;;;;;0.40;0.40;;;23.50;65.70;;;23.76;47.58;95550.97;5080635;28;20221;-78
2022/11/02 07:06:02;;;;;;;0.40;0.40;;;23.50;65.70;;;23.76;47.63;95550.97;5080094;28;20214;-78
2022/11/02 07:08:29;;;;;;;0.40;0.40;;;23.50;65.70;;;23.69;47.68;95541.59;5047274;28;20209;-78
2022/11/02 07:10:57;;;;;;;0.50;0.50;;;23.50;65.70;;;23.81;47.51;95555.56;5080227;28;20194;-78
2022/11/02 07:13:24;;;;;;;0.45;0.45;;;23.50;65.60;;;23.72;47.47;95544.53;5080186;28;20194;-78
2022/11/02 07:15:53;;;;;;;0.40;0.40;;;23.60;65.70;;;23.81;47.81;95552.88;5079792;28;20609;-78
2022/11/02 07:18:21;;;;;;;0.40;0.40;;;23.60;65.70;;;23.80;47.54;95551.28;5080182;28;20190;-78
2022/11/02 07:20:49;;;;;;;0.43;0.43;;;23.50;65.70;;;23.81;47.23;95553.72;5097564;28;20226;-78
2022/11/02 07:23:16;;;;;;;0.40;0.40;;;23.50;65.70;;;23.81;47.43;95547.53;5096603;28;20212;-78
2022/11/02 07:25:43;;;;;;;0.40;0.40;;;23.60;65.90;;;23.81;47.67;95550.22;5079811;28;20201;-78
2022/11/02 07:28:10;;;;;;;0.40;0.40;;;23.50;65.70;;;23.78;47.41;95540.03;5063249;28;20321;-78
2022/11/02 07:30:38;;;;;;;0.40;0.40;;;23.60;65.80;;;23.76;47.68;95542.94;5079667;28;20194;-78
2022/11/02 07:33:05;;;;;;;0.40;0.40;;;23.60;65.70;;;23.80;47.38;95544.06;5079684;28;20205;-78
2022/11/02 07:35:33;;;;;;;0.40;0.40;;;23.60;65.70;;;23.86;47.56;95555.59;5063120;28;20683;-78
2022/11/02 07:38:05;;;;;;;0.32;0.32;;;23.60;65.70;;;23.86;47.51;95549.44;5063154;28;20198;-78
2022/11/02 07:40:34;;;;;;;0.40;0.40;;;23.60;65.70;;;23.87;47.40;95551.84;5096862;28;20300;-78
2022/11/02 07:43:02;;;;;;;0.30;0.30;;;23.60;65.70;;;23.85;47.80;95550.50;5062920;28;20516;-78
2022/11/02 07:45:50;;;;;;;0.40;0.40;;;23.60;65.70;;;23.87;47.43;95548.38;5079265;28;20217;-78
2022/11/02 07:48:17;;;;;;;0.30;0.30;;;23.60;65.70;;;23.87;47.58;95556.41;5079624;28;20609;-78
2022/11/02 07:50:44;;;;;;;0.30;0.30;;;23.60;65.70;;;23.83;47.56;95548.88;5079590;28;20194;-78
2022/11/02 07:53:12;;;;;;;0.30;0.30;;;23.60;65.70;;;23.84;47.52;95547.03;5062667;28;20636;-78
2022/11/02 07:55:40;;;;;;;0.30;0.30;;;23.60;65.70;;;23.90;47.50;95556.69;5079096;28;20214;-78
2022/11/02 07:58:12;;;;;;;0.30;0.30;;;23.60;65.70;;;23.81;47.53;95536.81;5079480;28;20209;-78
2022/11/02 08:00:41;;;;;;;0.40;0.40;;;23.60;66.60;;;23.83;47.64;95540.84;5079250;28;20186;-78
2022/11/02 08:03:10;;;;;;;0.40;0.40;;;23.60;66.60;;;23.91;47.47;95555.63;5046042;28;20195;-78
2022/11/02 08:05:40;;;;;;;0.40;0.40;;;23.60;65.60;;;23.93;47.47;95563.44;5062771;28;20186;-78
2022/11/02 08:08:13;;;;;;;0.40;0.40;;;23.70;65.70;;;23.88;47.74;95550.00;5062489;28;20236;-78
2022/11/02 08:10:42;;;;;;;0.40;0.40;;;23.70;65.80;;;23.90;47.50;95553.19;5046012;28;20290;-78
2022/11/02 08:13:13;;;;;;;0.40;0.40;;;23.70;65.70;;;23.94;47.74;95554.34;5062664;28;20204;-77
2022/11/02 08:15:41;;;;;;;0.40;0.40;;;23.70;65.70;;;23.90;47.90;95548.66;5095601;28;20205;-78
2022/11/02 08:18:14;;;;;;;0.43;0.43;;;23.70;65.70;;;23.91;47.58;95566.34;5095763;28;20289;-78
2022/11/02 08:20:44;;;;;;;0.40;0.40;;;23.70;65.60;;;23.95;47.47;95570.16;5078971;28;20261;-78
2022/11/02 08:23:14;;;;;;;0.50;0.50;;;23.70;65.70;;;23.96;47.43;95570.94;5062698;28;20183;-78
2022/11/02 08:25:44;;;;;;;0.47;0.47;;;23.70;65.70;;;23.92;47.54;95551.06;5078805;28;20208;-78
2022/11/02 08:28:21;;;;;;;0.50;0.50;;;23.70;65.60;;;23.97;47.50;95568.03;5078536;28;20209;-78
2022/11/02 08:30:48;;;;;;;0.30;0.30;;;23.70;65.60;;;23.91;47.54;95552.97;5078580;28;20255;-78
2022/11/02 08:33:17;;;;;;;0.40;0.40;;;23.70;65.60;;;23.92;47.48;95553.75;5079016;28;20205;-78
2022/11/02 08:35:46;;;;;;;0.40;0.40;;;23.70;65.70;;;24.00;47.50;95565.88;5078219;28;20222;-78
2022/11/02 08:38:14;;;;;;;0.40;0.40;;;23.70;65.60;;;24.00;47.53;95564.00;5078509;28;20201;-77
2022/11/02 08:40:41;;;;;;;0.30;0.30;;;23.70;65.60;;;23.98;47.49;95556.22;5078558;28;20713;-77
2022/11/02 08:43:12;;;;;;;0.40;0.40;;;23.70;65.60;;;23.96;47.38;95553.00;5078492;28;20209;-78
2022/11/02 08:45:43;;;;;;;0.30;0.30;;;23.70;65.60;;;24.03;47.51;95560.00;5061909;28;20179;-78
2022/11/02 08:48:30;;;;;;;0.40;0.40;;;23.70;65.50;;;23.92;47.37;95543.03;5064436;28;20535;-78
2022/11/02 08:50:58;;;;;;;0.40;0.40;;;23.70;65.50;;;24.00;47.48;95553.28;5061925;28;20194;-78
2022/11/02 08:53:25;;;;;;;0.30;0.30;;;23.80;65.60;;;24.02;47.59;95550.34;5078345;28;20606;-78
2022/11/02 08:55:52;;;;;;;0.40;0.40;;;23.80;65.60;;;23.98;47.59;95548.16;5077847;28;20234;-78
2022/11/02 08:58:20;;;;;;;0.30;0.30;;;23.80;65.60;;;24.05;47.24;95557.88;5044955;28;20194;-78
2022/11/02 09:00:47;;;;;;;0.50;0.50;;;23.80;65.60;;;24.05;47.41;95550.63;5078168;28;20617;-78
2022/11/02 09:03:15;;;;;;;0.50;0.50;;;23.80;65.60;;;24.07;47.50;95553.84;5094835;28;20186;-78
2022/11/02 09:05:48;;;;;;;0.50;0.50;;;23.70;65.50;;;24.07;47.31;95553.84;5063096;28;20194;-78
2022/11/02 09:08:18;;;;;;;0.40;0.40;;;23.80;65.60;;;24.09;47.51;95548.22;5061260;28;20202;-77
2022/11/02 09:10:49;;;;;;;0.40;0.40;;;23.80;65.60;;;24.10;47.93;95556.00;5095105;28;20190;-77
2022/11/02 09:13:23;;;;;;;0.40;0.40;;;23.80;65.60;;;24.09;47.30;95554.38;5078626;28;20294;-78
2022/11/02 09:15:54;;;;;;;0.40;0.40;;;23.80;65.50;;;24.10;47.49;95547.97;5045350;28;20637;-78
2022/11/02 09:18:22;;;;;;;0.40;0.40;;;23.80;65.50;;;24.04;47.27;95546.31;5078126;28;20221;-78
2022/11/02 09:20:50;;;;;;;0.50;0.50;;;23.80;65.50;;;24.13;47.52;95552.00;5059999;28;20253;-78
2022/11/02 09:23:19;;;;;;;0.35;0.35;;;23.90;65.60;;;24.13;47.53;95552.00;5094319;28;20193;-78
2022/11/02 09:25:48;;;;;;;0.40;0.40;;;23.90;65.60;;;24.14;47.40;95548.25;5078392;28;20202;-78
2022/11/02 09:28:15;;;;;;;0.40;0.40;;;23.80;65.50;;;24.14;47.43;95565.16;5078174;28;20627;-78
2022/11/02 09:30:43;;;;;;;0.40;0.40;;;23.90;65.60;;;24.16;47.44;95567.56;5094643;28;20228;-78
2022/11/02 09:33:10;;;;;;;0.40;0.40;;;23.90;65.60;;;24.16;47.31;95564.88;5077518;28;20208;-78
2022/11/02 09:35:47;;;;;;;0.30;0.30;;;23.90;65.60;;;24.12;47.40;95558.41;5077422;28;20218;-78
2022/11/02 09:38:17;;;;;;;0.30;0.30;;;23.90;65.50;;;24.18;47.49;95562.75;5077866;28;20174;-78
2022/11/02 09:40:53;;;;;;;0.50;0.50;;;23.90;65.50;;;24.12;47.24;95553.06;5077847;28;20190;-78
2022/11/02 09:43:34;;;;;;;0.30;0.30;;;23.90;65.50;;;24.20;47.32;95570.53;5060762;28;20297;-78
2022/11/02 09:46:16;;;;;;;0.40;0.40;;;23.90;65.40;;;24.19;47.28;95571.59;5060756;28;20520;-78
2022/11/02 09:48:54;;;;;;;0.40;0.40;;;23.90;65.50;;;24.17;46.95;95561.13;5077808;28;20198;-78
2022/11/02 09:52:02;;;;;;;0.43;0.43;;;23.90;66.30;;;24.13;47.33;95565.38;5077756;28;20230;-78
2022/11/02 09:54:41;;;;;;;0.32;0.32;;;23.90;65.40;;;24.17;47.42;95568.34;5075366;28;20217;-78
2022/11/02 09:57:25;;;;;;;0.40;0.40;;;24.00;65.50;;;24.16;47.25;95570.25;5060933;28;20201;-78
2022/11/02 09:59:53;;;;;;;0.40;0.40;;;24.00;65.50;;;24.20;46.85;95582.03;5077511;28;20210;-78
2022/11/02 10:02:47;;;;;;;0.32;0.32;;;24.00;65.50;;;24.21;47.45;95567.56;5060681;28;20190;-78
2022/11/02 10:05:55;;;;;;;0.50;0.50;;;24.00;65.50;;;24.18;47.30;95565.44;5077383;28;20212;-77
2022/11/02 10:08:40;;;;;;;0.40;0.40;;;24.00;65.50;;;24.16;47.44;95564.88;5077165;28;20213;-78
2022/11/02 10:11:38;;;;;;;0.40;0.40;;;24.00;65.40;;;24.18;47.32;95562.75;5077333;28;20182;-78
2022/11/02 10:14:35;;;;;;;0.30;0.30;;;24.00;65.50;;;24.18;47.10;95568.13;5077040;28;20202;-78
2022/11/02 10:17:26;;;;;;;0.30;0.30;;;24.00;65.40;;;24.19;47.46;95574.25;5077048;28;20221;-78
2022/11/02 10:19:57;;;;;;;0.40;0.40;;;24.00;65.40;;;24.19;47.57;95566.22;5044132;28;20221;-78
2022/11/02 10:22:32;;;;;;;0.30;0.30;;;24.00;65.50;;;24.22;47.25;95573.75;5076736;28;20238;-78
2022/11/02 10:25:04;;;;;;;0.40;0.40;;;24.00;65.40;;;24.23;47.01;95569.97;5094177;28;20184;-78
2022/11/02 10:27:38;;;;;;;0.40;0.40;;;24.00;65.40;;;24.20;46.91;95568.63;5077575;28;20594;-78
2022/11/02 10:30:21;;;;;;;0.40;0.40;;;24.00;65.40;;;24.21;47.55;95566.78;5060521;28;20631;-78
2022/11/02 10:32:54;;;;;;;0.30;0.30;;;24.00;65.50;;;24.24;47.43;95563.56;5077366;28;20206;-77
2022/11/02 10:36:06;;;;;;;0.57;0.57;;;24.00;65.40;;;24.22;47.53;95566.50;5095087;28;20290;-77
2022/11/02 10:39:20;;;;;;;0.47;0.47;;;23.90;66.30;;;24.23;47.37;95569.97;5076349;28;20216;-77
2022/11/02 10:42:16;;;;;;;0.40;0.40;;;24.00;65.30;;;24.22;47.33;95560.34;5063938;28;20197;-77
2022/11/02 10:45:36;;;;;;;0.40;0.40;;;24.00;65.30;;;24.20;46.90;95565.97;5064077;28;20540;-77
2022/11/02 10:48:42;;;;;;;0.30;0.30;;;24.00;65.30;;;24.19;47.56;95560.88;5097461;28;20200;-77
2022/11/02 10:51:12;;;;;;;0.52;0.52;;;24.00;65.30;;;24.18;47.38;95564.59;5081094;28;20199;-77
2022/11/02 10:53:46;;;;;;;0.30;0.30;;;24.00;65.30;;;24.18;47.49;95568.13;5080587;28;20198;-77
2022/11/02 10:56:24;;;;;;;0.40;0.40;;;24.00;65.30;;;24.22;47.25;95563.81;5047662;28;20554;-77
2022/11/02 10:59:22;;;;;;;0.38;0.38;;;24.00;65.40;;;24.21;47.25;95556.84;5081278;28;20194;-78
2022/11/02 11:01:57;;;;;;;0.50;0.50;;;24.00;65.30;;;24.23;47.30;95561.94;5080697;28;20198;-78
2022/11/02 11:04:30;;;;;;;0.40;0.40;;;24.00;65.40;;;24.22;46.91;95560.34;5098408;28;20220;-78
2022/11/02 11:07:12;;;;;;;0.40;0.40;;;24.00;65.40;;;24.23;47.27;95551.22;5081032;28;20213;-77